sensor_id;sensor_type;location;lat;lon;timestamp;P1;durP1;ratioP1;P2;durP2;ratioP2
78053;SDS011;67726;45.636;11.752;2024-03-08T00:01:48;19.37;;;9.60;;
78053;SDS011;67726;45.636;11.752;2024-03-08T00:04:13;18.58;;;9.35;;
78053;SDS011;67726;45.636;11.752;2024-03-08T00:06:40;20.95;;;10.48;;
78053;SDS011;67726;45.636;11.752;2024-03-08T00:09:06;20.17;;;10.50;;
78053;SDS011;67726;45.636;11.752;2024-03-08T00:11:33;16.97;;;9.17;;
78053;SDS011;67726;45.636;11.752;2024-03-08T00:13:59;18.33;;;9.07;;
78053;SDS011;67726;45.636;11.752;2024-03-08T00:16:25;20.75;;;10.20;;
78053;SDS011;67726;45.636;11.752;2024-03-08T00:18:51;20.43;;;9.70;;
78053;SDS011;67726;45.636;11.752;2024-03-08T00:21:16;17.67;;;9.05;;
78053;SDS011;67726;45.636;11.752;2024-03-08T00:23:42;19.73;;;9.27;;
78053;SDS011;67726;45.636;11.752;2024-03-08T00:26:08;21.10;;;9.50;;
78053;SDS011;67726;45.636;11.752;2024-03-08T00:28:34;15.65;;;8.98;;
78053;SDS011;67726;45.636;11.752;2024-03-08T00:30:59;19.43;;;9.83;;
78053;SDS011;67726;45.636;11.752;2024-03-08T00:33:25;18.27;;;8.65;;
78053;SDS011;67726;45.636;11.752;2024-03-08T00:35:52;17.35;;;8.70;;
78053;SDS011;67726;45.636;11.752;2024-03-08T00:38:22;18.30;;;9.20;;
78053;SDS011;67726;45.636;11.752;2024-03-08T00:40:47;17.37;;;8.70;;
78053;SDS011;67726;45.636;11.752;2024-03-08T00:43:13;17.50;;;9.02;;
78053;SDS011;67726;45.636;11.752;2024-03-08T00:45:40;16.63;;;9.50;;
78053;SDS011;67726;45.636;11.752;2024-03-08T00:48:09;17.27;;;8.90;;
78053;SDS011;67726;45.636;11.752;2024-03-08T00:50:36;17.05;;;8.80;;
78053;SDS011;67726;45.636;11.752;2024-03-08T00:53:01;20.13;;;9.88;;
78053;SDS011;67726;45.636;11.752;2024-03-08T00:55:27;19.47;;;8.87;;
78053;SDS011;67726;45.636;11.752;2024-03-08T00:57:54;20.42;;;9.30;;
78053;SDS011;67726;45.636;11.752;2024-03-08T01:00:20;20.65;;;9.73;;
78053;SDS011;67726;45.636;11.752;2024-03-08T01:02:46;18.33;;;9.27;;
78053;SDS011;67726;45.636;11.752;2024-03-08T01:05:12;16.48;;;8.55;;
78053;SDS011;67726;45.636;11.752;2024-03-08T01:07:38;20.67;;;10.23;;
78053;SDS011;67726;45.636;11.752;2024-03-08T01:10:04;17.53;;;8.90;;
78053;SDS011;67726;45.636;11.752;2024-03-08T01:12:34;15.90;;;8.48;;
78053;SDS011;67726;45.636;11.752;2024-03-08T01:15:00;17.57;;;8.70;;
78053;SDS011;67726;45.636;11.752;2024-03-08T01:17:25;16.03;;;8.33;;
78053;SDS011;67726;45.636;11.752;2024-03-08T01:19:51;19.58;;;8.55;;
78053;SDS011;67726;45.636;11.752;2024-03-08T01:22:18;17.23;;;8.82;;
78053;SDS011;67726;45.636;11.752;2024-03-08T01:24:44;15.17;;;7.93;;
78053;SDS011;67726;45.636;11.752;2024-03-08T01:27:09;16.17;;;8.77;;
78053;SDS011;67726;45.636;11.752;2024-03-08T01:29:37;17.30;;;8.50;;
78053;SDS011;67726;45.636;11.752;2024-03-08T01:32:02;15.33;;;8.50;;
78053;SDS011;67726;45.636;11.752;2024-03-08T01:34:28;16.00;;;7.72;;
78053;SDS011;67726;45.636;11.752;2024-03-08T01:36:54;13.43;;;7.13;;
78053;SDS011;67726;45.636;11.752;2024-03-08T01:39:23;13.95;;;7.20;;
78053;SDS011;67726;45.636;11.752;2024-03-08T01:41:49;15.57;;;7.78;;
78053;SDS011;67726;45.636;11.752;2024-03-08T01:44:14;14.87;;;7.33;;
78053;SDS011;67726;45.636;11.752;2024-03-08T01:46:43;14.15;;;6.90;;
78053;SDS011;67726;45.636;11.752;2024-03-08T01:49:10;14.60;;;7.80;;
78053;SDS011;67726;45.636;11.752;2024-03-08T01:51:37;16.33;;;7.80;;
78053;SDS011;67726;45.636;11.752;2024-03-08T01:54:05;16.17;;;7.17;;
78053;SDS011;67726;45.636;11.752;2024-03-08T01:56:31;14.32;;;7.28;;
78053;SDS011;67726;45.636;11.752;2024-03-08T01:58:57;16.02;;;7.25;;
78053;SDS011;67726;45.636;11.752;2024-03-08T02:01:24;14.23;;;6.88;;
78053;SDS011;67726;45.636;11.752;2024-03-08T02:03:50;13.53;;;6.87;;
78053;SDS011;67726;45.636;11.752;2024-03-08T02:06:16;12.80;;;6.47;;
78053;SDS011;67726;45.636;11.752;2024-03-08T02:08:42;14.02;;;6.28;;
78053;SDS011;67726;45.636;11.752;2024-03-08T02:11:12;12.43;;;6.32;;
78053;SDS011;67726;45.636;11.752;2024-03-08T02:13:38;12.60;;;5.80;;
78053;SDS011;67726;45.636;11.752;2024-03-08T02:16:04;11.48;;;6.13;;
78053;SDS011;67726;45.636;11.752;2024-03-08T02:18:32;12.52;;;6.10;;
78053;SDS011;67726;45.636;11.752;2024-03-08T02:20:59;14.05;;;6.07;;
78053;SDS011;67726;45.636;11.752;2024-03-08T02:23:27;11.63;;;6.10;;
78053;SDS011;67726;45.636;11.752;2024-03-08T02:25:54;13.38;;;5.93;;
78053;SDS011;67726;45.636;11.752;2024-03-08T02:28:21;13.52;;;6.40;;
78053;SDS011;67726;45.636;11.752;2024-03-08T02:30:47;11.85;;;5.80;;
78053;SDS011;67726;45.636;11.752;2024-03-08T02:33:14;12.07;;;6.60;;
78053;SDS011;67726;45.636;11.752;2024-03-08T02:35:44;11.73;;;6.27;;
78053;SDS011;67726;45.636;11.752;2024-03-08T02:38:17;12.32;;;5.88;;
78053;SDS011;67726;45.636;11.752;2024-03-08T02:40:53;12.48;;;5.70;;
78053;SDS011;67726;45.636;11.752;2024-03-08T02:43:19;13.27;;;6.35;;
78053;SDS011;67726;45.636;11.752;2024-03-08T02:45:47;11.90;;;6.35;;
78053;SDS011;67726;45.636;11.752;2024-03-08T02:48:13;12.23;;;6.03;;
78053;SDS011;67726;45.636;11.752;2024-03-08T02:50:41;12.10;;;6.25;;
78053;SDS011;67726;45.636;11.752;2024-03-08T02:53:10;11.77;;;5.88;;
78053;SDS011;67726;45.636;11.752;2024-03-08T02:55:40;12.77;;;5.88;;
78053;SDS011;67726;45.636;11.752;2024-03-08T02:58:06;12.63;;;6.30;;
78053;SDS011;67726;45.636;11.752;2024-03-08T03:00:35;12.50;;;6.93;;
78053;SDS011;67726;45.636;11.752;2024-03-08T03:03:04;13.05;;;6.00;;
78053;SDS011;67726;45.636;11.752;2024-03-08T03:05:31;12.63;;;6.10;;
78053;SDS011;67726;45.636;11.752;2024-03-08T03:07:57;12.15;;;6.05;;
78053;SDS011;67726;45.636;11.752;2024-03-08T03:10:23;13.63;;;6.43;;
78053;SDS011;67726;45.636;11.752;2024-03-08T03:12:49;15.15;;;7.10;;
78053;SDS011;67726;45.636;11.752;2024-03-08T03:15:15;14.27;;;7.05;;
78053;SDS011;67726;45.636;11.752;2024-03-08T03:17:49;13.38;;;6.72;;
78053;SDS011;67726;45.636;11.752;2024-03-08T03:20:18;13.57;;;6.47;;
78053;SDS011;67726;45.636;11.752;2024-03-08T03:22:57;14.98;;;6.65;;
78053;SDS011;67726;45.636;11.752;2024-03-08T03:25:26;12.18;;;6.90;;
78053;SDS011;67726;45.636;11.752;2024-03-08T03:27:57;13.68;;;6.85;;
78053;SDS011;67726;45.636;11.752;2024-03-08T03:30:23;14.70;;;7.67;;
78053;SDS011;67726;45.636;11.752;2024-03-08T03:32:51;13.63;;;7.15;;
78053;SDS011;67726;45.636;11.752;2024-03-08T03:35:19;15.52;;;7.53;;
78053;SDS011;67726;45.636;11.752;2024-03-08T03:37:45;16.10;;;7.93;;
78053;SDS011;67726;45.636;11.752;2024-03-08T03:40:26;15.43;;;7.43;;
78053;SDS011;67726;45.636;11.752;2024-03-08T03:42:56;13.63;;;7.07;;
78053;SDS011;67726;45.636;11.752;2024-03-08T03:45:22;14.90;;;6.97;;
78053;SDS011;67726;45.636;11.752;2024-03-08T03:47:50;12.90;;;6.57;;
78053;SDS011;67726;45.636;11.752;2024-03-08T03:50:17;12.83;;;7.10;;
78053;SDS011;67726;45.636;11.752;2024-03-08T03:52:44;13.00;;;6.72;;
78053;SDS011;67726;45.636;11.752;2024-03-08T03:55:13;12.15;;;5.90;;
78053;SDS011;67726;45.636;11.752;2024-03-08T03:57:39;13.05;;;6.38;;
78053;SDS011;67726;45.636;11.752;2024-03-08T04:00:06;10.98;;;5.55;;
78053;SDS011;67726;45.636;11.752;2024-03-08T04:02:35;10.40;;;5.50;;
78053;SDS011;67726;45.636;11.752;2024-03-08T04:05:08;11.23;;;5.60;;
78053;SDS011;67726;45.636;11.752;2024-03-08T04:07:34;11.55;;;5.65;;
78053;SDS011;67726;45.636;11.752;2024-03-08T04:10:03;10.02;;;5.40;;
78053;SDS011;67726;45.636;11.752;2024-03-08T04:12:34;10.88;;;5.20;;
78053;SDS011;67726;45.636;11.752;2024-03-08T04:14:59;9.53;;;4.73;;
78053;SDS011;67726;45.636;11.752;2024-03-08T04:17:25;10.07;;;4.85;;
78053;SDS011;67726;45.636;11.752;2024-03-08T04:19:51;9.07;;;4.53;;
78053;SDS011;67726;45.636;11.752;2024-03-08T04:22:18;9.68;;;4.63;;
78053;SDS011;67726;45.636;11.752;2024-03-08T04:24:44;7.93;;;3.97;;
78053;SDS011;67726;45.636;11.752;2024-03-08T04:27:10;7.45;;;3.95;;
78053;SDS011;67726;45.636;11.752;2024-03-08T04:29:36;7.93;;;4.30;;
78053;SDS011;67726;45.636;11.752;2024-03-08T04:32:03;7.28;;;3.80;;
78053;SDS011;67726;45.636;11.752;2024-03-08T04:34:30;8.27;;;4.23;;
78053;SDS011;67726;45.636;11.752;2024-03-08T04:36:59;8.05;;;4.32;;
78053;SDS011;67726;45.636;11.752;2024-03-08T04:39:24;8.32;;;4.15;;
78053;SDS011;67726;45.636;11.752;2024-03-08T04:41:53;7.20;;;3.70;;
78053;SDS011;67726;45.636;11.752;2024-03-08T04:44:19;7.10;;;4.00;;
78053;SDS011;67726;45.636;11.752;2024-03-08T04:46:45;8.23;;;3.77;;
78053;SDS011;67726;45.636;11.752;2024-03-08T04:49:11;7.25;;;4.05;;
78053;SDS011;67726;45.636;11.752;2024-03-08T04:51:38;7.50;;;3.33;;
78053;SDS011;67726;45.636;11.752;2024-03-08T04:54:04;8.33;;;4.53;;
78053;SDS011;67726;45.636;11.752;2024-03-08T04:56:32;9.32;;;4.63;;
78053;SDS011;67726;45.636;11.752;2024-03-08T04:58:58;9.65;;;4.45;;
78053;SDS011;67726;45.636;11.752;2024-03-08T05:01:24;8.50;;;4.17;;
78053;SDS011;67726;45.636;11.752;2024-03-08T05:03:50;8.18;;;4.15;;
78053;SDS011;67726;45.636;11.752;2024-03-08T05:06:16;9.50;;;4.75;;
78053;SDS011;67726;45.636;11.752;2024-03-08T05:08:42;9.47;;;4.40;;
78053;SDS011;67726;45.636;11.752;2024-03-08T05:11:07;10.25;;;4.80;;
78053;SDS011;67726;45.636;11.752;2024-03-08T05:13:33;9.30;;;4.93;;
78053;SDS011;67726;45.636;11.752;2024-03-08T05:15:59;9.55;;;5.30;;
78053;SDS011;67726;45.636;11.752;2024-03-08T05:18:25;9.60;;;4.85;;
78053;SDS011;67726;45.636;11.752;2024-03-08T05:20:53;10.15;;;5.15;;
78053;SDS011;67726;45.636;11.752;2024-03-08T05:23:18;9.07;;;4.87;;
78053;SDS011;67726;45.636;11.752;2024-03-08T05:25:44;9.90;;;5.05;;
78053;SDS011;67726;45.636;11.752;2024-03-08T05:28:12;10.90;;;5.63;;
78053;SDS011;67726;45.636;11.752;2024-03-08T05:30:38;9.77;;;5.13;;
78053;SDS011;67726;45.636;11.752;2024-03-08T05:33:04;11.50;;;6.07;;
78053;SDS011;67726;45.636;11.752;2024-03-08T05:35:29;10.40;;;5.45;;
78053;SDS011;67726;45.636;11.752;2024-03-08T05:37:55;11.37;;;5.70;;
78053;SDS011;67726;45.636;11.752;2024-03-08T05:40:22;12.35;;;6.53;;
78053;SDS011;67726;45.636;11.752;2024-03-08T05:42:49;11.68;;;5.63;;
78053;SDS011;67726;45.636;11.752;2024-03-08T05:45:15;10.57;;;5.73;;
78053;SDS011;67726;45.636;11.752;2024-03-08T05:47:40;12.73;;;6.85;;
78053;SDS011;67726;45.636;11.752;2024-03-08T05:50:07;13.18;;;7.05;;
78053;SDS011;67726;45.636;11.752;2024-03-08T05:52:35;13.98;;;6.75;;
78053;SDS011;67726;45.636;11.752;2024-03-08T05:55:02;12.50;;;7.20;;
78053;SDS011;67726;45.636;11.752;2024-03-08T05:57:32;15.05;;;8.15;;
78053;SDS011;67726;45.636;11.752;2024-03-08T05:59:57;15.93;;;8.55;;
78053;SDS011;67726;45.636;11.752;2024-03-08T06:02:23;14.33;;;7.33;;
78053;SDS011;67726;45.636;11.752;2024-03-08T06:04:48;16.57;;;8.70;;
78053;SDS011;67726;45.636;11.752;2024-03-08T06:07:14;18.30;;;8.68;;
78053;SDS011;67726;45.636;11.752;2024-03-08T06:09:42;15.85;;;8.45;;
78053;SDS011;67726;45.636;11.752;2024-03-08T06:12:11;15.05;;;8.32;;
78053;SDS011;67726;45.636;11.752;2024-03-08T06:14:36;18.10;;;8.40;;
78053;SDS011;67726;45.636;11.752;2024-03-08T06:17:02;17.13;;;8.43;;
78053;SDS011;67726;45.636;11.752;2024-03-08T06:19:31;14.80;;;7.60;;
78053;SDS011;67726;45.636;11.752;2024-03-08T06:21:56;17.53;;;8.07;;
78053;SDS011;67726;45.636;11.752;2024-03-08T06:24:22;16.43;;;7.97;;
78053;SDS011;67726;45.636;11.752;2024-03-08T06:26:47;16.07;;;8.17;;
78053;SDS011;67726;45.636;11.752;2024-03-08T06:29:13;16.58;;;8.35;;
78053;SDS011;67726;45.636;11.752;2024-03-08T06:31:40;14.52;;;7.43;;
78053;SDS011;67726;45.636;11.752;2024-03-08T06:34:06;13.27;;;6.90;;
78053;SDS011;67726;45.636;11.752;2024-03-08T06:36:33;15.85;;;7.63;;
78053;SDS011;67726;45.636;11.752;2024-03-08T06:38:58;14.32;;;7.63;;
78053;SDS011;67726;45.636;11.752;2024-03-08T06:41:24;12.47;;;6.90;;
78053;SDS011;67726;45.636;11.752;2024-03-08T06:49:57;15.88;;;8.30;;
78053;SDS011;67726;45.636;11.752;2024-03-08T06:52:22;13.07;;;6.82;;
78053;SDS011;67726;45.636;11.752;2024-03-08T06:54:48;15.37;;;7.17;;
78053;SDS011;67726;45.636;11.752;2024-03-08T06:57:14;13.93;;;7.68;;
78053;SDS011;67726;45.636;11.752;2024-03-08T06:59:41;15.40;;;8.68;;
78053;SDS011;67726;45.636;11.752;2024-03-08T07:02:07;16.23;;;7.87;;
78053;SDS011;67726;45.636;11.752;2024-03-08T07:04:35;15.15;;;8.07;;
78053;SDS011;67726;45.636;11.752;2024-03-08T07:07:06;15.20;;;7.63;;
78053;SDS011;67726;45.636;11.752;2024-03-08T07:09:37;13.35;;;7.63;;
78053;SDS011;67726;45.636;11.752;2024-03-08T07:12:03;14.38;;;7.97;;
78053;SDS011;67726;45.636;11.752;2024-03-08T07:14:29;14.43;;;7.77;;
78053;SDS011;67726;45.636;11.752;2024-03-08T07:16:56;14.45;;;7.75;;
78053;SDS011;67726;45.636;11.752;2024-03-08T07:19:22;15.13;;;7.50;;
78053;SDS011;67726;45.636;11.752;2024-03-08T07:21:49;13.45;;;7.50;;
78053;SDS011;67726;45.636;11.752;2024-03-08T07:24:14;12.97;;;7.67;;
78053;SDS011;67726;45.636;11.752;2024-03-08T07:26:45;15.25;;;7.97;;
78053;SDS011;67726;45.636;11.752;2024-03-08T07:29:15;13.90;;;7.05;;
78053;SDS011;67726;45.636;11.752;2024-03-08T07:31:41;15.63;;;7.20;;
78053;SDS011;67726;45.636;11.752;2024-03-08T07:34:06;14.63;;;7.32;;
78053;SDS011;67726;45.636;11.752;2024-03-08T07:36:32;14.37;;;7.10;;
78053;SDS011;67726;45.636;11.752;2024-03-08T07:38:59;15.48;;;7.70;;
78053;SDS011;67726;45.636;11.752;2024-03-08T07:41:25;23.95;;;9.73;;
78053;SDS011;67726;45.636;11.752;2024-03-08T07:43:51;15.60;;;8.20;;
78053;SDS011;67726;45.636;11.752;2024-03-08T07:46:17;13.40;;;7.05;;
78053;SDS011;67726;45.636;11.752;2024-03-08T07:48:43;12.20;;;6.95;;
78053;SDS011;67726;45.636;11.752;2024-03-08T07:51:09;13.07;;;7.30;;
78053;SDS011;67726;45.636;11.752;2024-03-08T07:53:37;14.65;;;7.78;;
78053;SDS011;67726;45.636;11.752;2024-03-08T07:56:03;12.88;;;6.82;;
78053;SDS011;67726;45.636;11.752;2024-03-08T07:58:30;11.75;;;6.65;;
78053;SDS011;67726;45.636;11.752;2024-03-08T08:00:55;13.87;;;6.73;;
78053;SDS011;67726;45.636;11.752;2024-03-08T08:03:21;14.07;;;6.95;;
78053;SDS011;67726;45.636;11.752;2024-03-08T08:05:47;14.30;;;7.27;;
78053;SDS011;67726;45.636;11.752;2024-03-08T08:08:14;13.00;;;7.05;;
78053;SDS011;67726;45.636;11.752;2024-03-08T08:10:40;12.75;;;7.15;;
78053;SDS011;67726;45.636;11.752;2024-03-08T08:13:06;12.30;;;6.53;;
78053;SDS011;67726;45.636;11.752;2024-03-08T08:15:31;13.03;;;6.80;;
78053;SDS011;67726;45.636;11.752;2024-03-08T08:18:00;12.00;;;6.80;;
78053;SDS011;67726;45.636;11.752;2024-03-08T08:20:27;14.70;;;7.60;;
78053;SDS011;67726;45.636;11.752;2024-03-08T08:22:53;10.67;;;6.70;;
78053;SDS011;67726;45.636;11.752;2024-03-08T08:25:20;12.07;;;6.72;;
78053;SDS011;67726;45.636;11.752;2024-03-08T08:27:47;14.30;;;6.72;;
78053;SDS011;67726;45.636;11.752;2024-03-08T08:30:13;12.45;;;6.70;;
78053;SDS011;67726;45.636;11.752;2024-03-08T08:32:39;13.10;;;6.67;;
78053;SDS011;67726;45.636;11.752;2024-03-08T08:35:07;12.82;;;6.03;;
78053;SDS011;67726;45.636;11.752;2024-03-08T08:37:38;13.50;;;6.82;;
78053;SDS011;67726;45.636;11.752;2024-03-08T08:40:04;14.93;;;6.97;;
78053;SDS011;67726;45.636;11.752;2024-03-08T08:42:39;11.20;;;6.00;;
78053;SDS011;67726;45.636;11.752;2024-03-08T08:45:06;12.98;;;5.93;;
78053;SDS011;67726;45.636;11.752;2024-03-08T08:47:34;10.52;;;5.68;;
78053;SDS011;67726;45.636;11.752;2024-03-08T08:50:01;12.38;;;6.15;;
78053;SDS011;67726;45.636;11.752;2024-03-08T08:52:29;11.50;;;6.55;;
78053;SDS011;67726;45.636;11.752;2024-03-08T08:54:54;11.37;;;5.90;;
78053;SDS011;67726;45.636;11.752;2024-03-08T08:57:20;15.30;;;7.10;;
78053;SDS011;67726;45.636;11.752;2024-03-08T08:59:45;11.37;;;5.93;;
78053;SDS011;67726;45.636;11.752;2024-03-08T09:02:11;11.47;;;6.70;;
78053;SDS011;67726;45.636;11.752;2024-03-08T09:04:38;11.18;;;6.38;;
78053;SDS011;67726;45.636;11.752;2024-03-08T09:07:03;11.30;;;6.25;;
78053;SDS011;67726;45.636;11.752;2024-03-08T09:09:31;13.07;;;6.27;;
78053;SDS011;67726;45.636;11.752;2024-03-08T09:11:57;12.32;;;6.88;;
78053;SDS011;67726;45.636;11.752;2024-03-08T09:14:23;11.48;;;5.85;;
78053;SDS011;67726;45.636;11.752;2024-03-08T09:16:51;11.40;;;6.23;;
78053;SDS011;67726;45.636;11.752;2024-03-08T09:19:16;11.82;;;5.78;;
78053;SDS011;67726;45.636;11.752;2024-03-08T09:21:44;10.70;;;6.18;;
78053;SDS011;67726;45.636;11.752;2024-03-08T09:24:10;12.90;;;7.20;;
78053;SDS011;67726;45.636;11.752;2024-03-08T09:26:35;11.32;;;6.70;;
78053;SDS011;67726;45.636;11.752;2024-03-08T09:29:02;13.55;;;6.68;;
78053;SDS011;67726;45.636;11.752;2024-03-08T09:31:27;12.63;;;7.27;;
78053;SDS011;67726;45.636;11.752;2024-03-08T09:33:53;13.77;;;7.60;;
78053;SDS011;67726;45.636;11.752;2024-03-08T09:36:19;12.43;;;7.07;;
78053;SDS011;67726;45.636;11.752;2024-03-08T09:38:45;12.82;;;7.15;;
78053;SDS011;67726;45.636;11.752;2024-03-08T09:41:10;13.83;;;7.23;;
78053;SDS011;67726;45.636;11.752;2024-03-08T09:43:37;12.38;;;7.10;;
78053;SDS011;67726;45.636;11.752;2024-03-08T09:46:04;13.98;;;7.68;;
78053;SDS011;67726;45.636;11.752;2024-03-08T09:48:33;12.25;;;7.05;;
78053;SDS011;67726;45.636;11.752;2024-03-08T09:50:59;14.02;;;7.63;;
78053;SDS011;67726;45.636;11.752;2024-03-08T09:53:25;14.17;;;7.77;;
78053;SDS011;67726;45.636;11.752;2024-03-08T09:55:51;14.43;;;7.90;;
78053;SDS011;67726;45.636;11.752;2024-03-08T09:58:17;15.47;;;7.30;;
78053;SDS011;67726;45.636;11.752;2024-03-08T10:01:01;14.98;;;8.45;;
78053;SDS011;67726;45.636;11.752;2024-03-08T10:03:29;13.52;;;7.03;;
78053;SDS011;67726;45.636;11.752;2024-03-08T10:05:56;12.63;;;7.25;;
78053;SDS011;67726;45.636;11.752;2024-03-08T10:08:25;16.67;;;7.87;;
78053;SDS011;67726;45.636;11.752;2024-03-08T10:10:52;14.25;;;7.82;;
78053;SDS011;67726;45.636;11.752;2024-03-08T10:13:17;13.85;;;8.13;;
78053;SDS011;67726;45.636;11.752;2024-03-08T10:15:44;15.63;;;7.55;;
78053;SDS011;67726;45.636;11.752;2024-03-08T10:18:10;13.90;;;8.00;;
78053;SDS011;67726;45.636;11.752;2024-03-08T10:20:36;13.45;;;7.93;;
78053;SDS011;67726;45.636;11.752;2024-03-08T10:23:02;17.03;;;9.33;;
78053;SDS011;67726;45.636;11.752;2024-03-08T10:25:30;13.30;;;7.03;;
78053;SDS011;67726;45.636;11.752;2024-03-08T10:27:59;15.52;;;8.02;;
78053;SDS011;67726;45.636;11.752;2024-03-08T10:30:29;15.53;;;7.73;;
78053;SDS011;67726;45.636;11.752;2024-03-08T10:32:54;13.05;;;8.02;;
78053;SDS011;67726;45.636;11.752;2024-03-08T10:35:20;16.07;;;8.23;;
78053;SDS011;67726;45.636;11.752;2024-03-08T10:37:47;15.02;;;8.20;;
78053;SDS011;67726;45.636;11.752;2024-03-08T10:40:18;15.15;;;7.75;;
78053;SDS011;67726;45.636;11.752;2024-03-08T10:45:34;13.57;;;7.22;;
78053;SDS011;67726;45.636;11.752;2024-03-08T10:48:45;14.80;;;8.13;;
78053;SDS011;67726;45.636;11.752;2024-03-08T10:50:56;14.35;;;8.25;;
78053;SDS011;67726;45.636;11.752;2024-03-08T10:53:27;14.55;;;7.75;;
78053;SDS011;67726;45.636;11.752;2024-03-08T10:55:57;17.60;;;8.97;;
78053;SDS011;67726;45.636;11.752;2024-03-08T10:58:23;14.32;;;7.85;;
78053;SDS011;67726;45.636;11.752;2024-03-08T11:00:54;15.15;;;8.30;;
78053;SDS011;67726;45.636;11.752;2024-03-08T11:06:08;13.23;;;7.65;;
78053;SDS011;67726;45.636;11.752;2024-03-08T11:08:48;16.13;;;8.17;;
78053;SDS011;67726;45.636;11.752;2024-03-08T11:13:52;17.58;;;8.07;;
78053;SDS011;67726;45.636;11.752;2024-03-08T11:19:33;14.10;;;8.20;;
78053;SDS011;67726;45.636;11.752;2024-03-08T11:21:39;14.03;;;7.97;;
78053;SDS011;67726;45.636;11.752;2024-03-08T11:24:10;14.60;;;8.40;;
78053;SDS011;67726;45.636;11.752;2024-03-08T11:26:38;19.50;;;9.70;;
78053;SDS011;67726;45.636;11.752;2024-03-08T11:32:04;16.58;;;9.63;;
78053;SDS011;67726;45.636;11.752;2024-03-08T11:34:40;15.43;;;8.20;;
78053;SDS011;67726;45.636;11.752;2024-03-08T11:37:18;19.42;;;9.45;;
78053;SDS011;67726;45.636;11.752;2024-03-08T11:39:52;19.13;;;10.15;;
78053;SDS011;67726;45.636;11.752;2024-03-08T11:42:24;19.45;;;9.93;;
78053;SDS011;67726;45.636;11.752;2024-03-08T11:44:51;21.77;;;11.02;;
78053;SDS011;67726;45.636;11.752;2024-03-08T11:47:17;24.10;;;11.40;;
78053;SDS011;67726;45.636;11.752;2024-03-08T11:49:44;26.83;;;13.38;;
78053;SDS011;67726;45.636;11.752;2024-03-08T11:52:13;21.48;;;11.80;;
78053;SDS011;67726;45.636;11.752;2024-03-08T11:54:40;25.83;;;12.52;;
78053;SDS011;67726;45.636;11.752;2024-03-08T11:57:06;23.02;;;12.63;;
78053;SDS011;67726;45.636;11.752;2024-03-08T11:59:32;27.57;;;13.07;;
78053;SDS011;67726;45.636;11.752;2024-03-08T12:01:58;22.45;;;11.30;;
78053;SDS011;67726;45.636;11.752;2024-03-08T12:04:31;24.38;;;12.48;;
78053;SDS011;67726;45.636;11.752;2024-03-08T12:07:00;22.07;;;11.50;;
78053;SDS011;67726;45.636;11.752;2024-03-08T12:09:36;22.20;;;11.45;;
78053;SDS011;67726;45.636;11.752;2024-03-08T12:12:02;21.00;;;11.43;;
78053;SDS011;67726;45.636;11.752;2024-03-08T12:14:32;22.65;;;11.57;;
78053;SDS011;67726;45.636;11.752;2024-03-08T12:16:58;21.17;;;11.70;;
78053;SDS011;67726;45.636;11.752;2024-03-08T12:19:26;22.43;;;11.53;;
78053;SDS011;67726;45.636;11.752;2024-03-08T12:21:53;22.58;;;11.48;;
78053;SDS011;67726;45.636;11.752;2024-03-08T12:24:19;23.30;;;11.82;;
78053;SDS011;67726;45.636;11.752;2024-03-08T12:26:46;21.92;;;11.60;;
78053;SDS011;67726;45.636;11.752;2024-03-08T12:31:59;23.20;;;11.97;;
78053;SDS011;67726;45.636;11.752;2024-03-08T12:34:26;21.75;;;10.63;;
78053;SDS011;67726;45.636;11.752;2024-03-08T12:36:53;22.75;;;10.40;;
78053;SDS011;67726;45.636;11.752;2024-03-08T12:39:20;19.90;;;10.45;;
78053;SDS011;67726;45.636;11.752;2024-03-08T12:41:52;20.25;;;11.05;;
78053;SDS011;67726;45.636;11.752;2024-03-08T12:44:18;19.90;;;10.97;;
78053;SDS011;67726;45.636;11.752;2024-03-08T12:46:46;18.25;;;10.27;;
78053;SDS011;67726;45.636;11.752;2024-03-08T12:49:13;19.48;;;10.50;;
78053;SDS011;67726;45.636;11.752;2024-03-08T12:51:45;20.15;;;10.38;;
78053;SDS011;67726;45.636;11.752;2024-03-08T12:54:11;18.30;;;9.82;;
78053;SDS011;67726;45.636;11.752;2024-03-08T12:56:37;20.87;;;10.60;;
78053;SDS011;67726;45.636;11.752;2024-03-08T12:59:05;19.05;;;10.43;;
78053;SDS011;67726;45.636;11.752;2024-03-08T13:01:32;17.15;;;9.25;;
78053;SDS011;67726;45.636;11.752;2024-03-08T13:03:58;17.48;;;9.27;;
78053;SDS011;67726;45.636;11.752;2024-03-08T13:06:26;17.23;;;9.33;;
78053;SDS011;67726;45.636;11.752;2024-03-08T13:08:53;18.73;;;10.27;;
78053;SDS011;67726;45.636;11.752;2024-03-08T13:14:16;16.42;;;8.77;;
78053;SDS011;67726;45.636;11.752;2024-03-08T13:16:42;18.40;;;9.83;;
78053;SDS011;67726;45.636;11.752;2024-03-08T13:19:12;18.35;;;9.95;;
78053;SDS011;67726;45.636;11.752;2024-03-08T13:21:38;21.95;;;10.73;;
78053;SDS011;67726;45.636;11.752;2024-03-08T13:24:05;18.38;;;9.63;;
78053;SDS011;67726;45.636;11.752;2024-03-08T13:26:30;17.60;;;9.93;;
78053;SDS011;67726;45.636;11.752;2024-03-08T13:28:58;18.92;;;10.00;;
78053;SDS011;67726;45.636;11.752;2024-03-08T13:31:23;15.93;;;8.95;;
78053;SDS011;67726;45.636;11.752;2024-03-08T13:33:49;17.60;;;9.23;;
78053;SDS011;67726;45.636;11.752;2024-03-08T13:36:16;16.52;;;9.20;;
78053;SDS011;67726;45.636;11.752;2024-03-08T13:38:46;18.60;;;9.98;;
78053;SDS011;67726;45.636;11.752;2024-03-08T13:41:13;18.17;;;9.07;;
78053;SDS011;67726;45.636;11.752;2024-03-08T13:43:46;14.90;;;8.30;;
78053;SDS011;67726;45.636;11.752;2024-03-08T13:46:14;16.27;;;9.10;;
78053;SDS011;67726;45.636;11.752;2024-03-08T13:48:40;14.70;;;8.70;;
78053;SDS011;67726;45.636;11.752;2024-03-08T13:51:06;16.87;;;9.07;;
78053;SDS011;67726;45.636;11.752;2024-03-08T13:53:35;15.50;;;8.60;;
78053;SDS011;67726;45.636;11.752;2024-03-08T13:56:04;16.10;;;8.73;;
78053;SDS011;67726;45.636;11.752;2024-03-08T13:58:30;15.32;;;8.38;;
78053;SDS011;67726;45.636;11.752;2024-03-08T14:00:56;14.35;;;8.27;;
78053;SDS011;67726;45.636;11.752;2024-03-08T14:03:22;19.07;;;8.93;;
78053;SDS011;67726;45.636;11.752;2024-03-08T14:05:49;16.42;;;9.10;;
78053;SDS011;67726;45.636;11.752;2024-03-08T14:08:15;14.70;;;7.67;;
78053;SDS011;67726;45.636;11.752;2024-03-08T14:10:42;14.95;;;8.27;;
78053;SDS011;67726;45.636;11.752;2024-03-08T14:13:08;17.08;;;8.65;;
78053;SDS011;67726;45.636;11.752;2024-03-08T14:15:34;17.57;;;8.97;;
78053;SDS011;67726;45.636;11.752;2024-03-08T14:18:00;16.40;;;8.90;;
78053;SDS011;67726;45.636;11.752;2024-03-08T14:20:31;15.18;;;8.38;;
78053;SDS011;67726;45.636;11.752;2024-03-08T14:22:57;15.63;;;8.63;;
78053;SDS011;67726;45.636;11.752;2024-03-08T14:25:23;15.32;;;8.27;;
78053;SDS011;67726;45.636;11.752;2024-03-08T14:27:49;16.20;;;9.25;;
78053;SDS011;67726;45.636;11.752;2024-03-08T14:30:18;16.80;;;9.10;;
78053;SDS011;67726;45.636;11.752;2024-03-08T14:33:03;15.38;;;8.88;;
78053;SDS011;67726;45.636;11.752;2024-03-08T14:35:36;16.75;;;9.50;;
78053;SDS011;67726;45.636;11.752;2024-03-08T14:38:03;15.85;;;9.25;;
78053;SDS011;67726;45.636;11.752;2024-03-08T14:40:29;15.30;;;8.43;;
78053;SDS011;67726;45.636;11.752;2024-03-08T14:42:55;15.73;;;8.47;;
78053;SDS011;67726;45.636;11.752;2024-03-08T14:45:22;16.17;;;9.13;;
78053;SDS011;67726;45.636;11.752;2024-03-08T14:47:49;14.77;;;8.82;;